sensor_id;sensor_type;location;lat;lon;timestamp;P1;durP1;ratioP1;P2;durP2;ratioP2
6217;SDS011;3142;48.206;11.550;2023-02-28T00:01:06;5.67;;;2.83;;
6217;SDS011;3142;48.206;11.550;2023-02-28T00:03:32;3.97;;;2.87;;
6217;SDS011;3142;48.206;11.550;2023-02-28T00:06:00;4.17;;;2.93;;
6217;SDS011;3142;48.206;11.550;2023-02-28T00:08:28;4.80;;;3.10;;
6217;SDS011;3142;48.206;11.550;2023-02-28T00:10:54;3.77;;;2.93;;
6217;SDS011;3142;48.206;11.550;2023-02-28T00:13:21;3.50;;;3.00;;
6217;SDS011;3142;48.206;11.550;2023-02-28T00:15:47;7.13;;;3.50;;
6217;SDS011;3142;48.206;11.550;2023-02-28T00:18:24;6.00;;;3.03;;
6217;SDS011;3142;48.206;11.550;2023-02-28T00:20:51;3.77;;;3.17;;
6217;SDS011;3142;48.206;11.550;2023-02-28T00:23:17;3.50;;;3.00;;
6217;SDS011;3142;48.206;11.550;2023-02-28T00:25:45;4.27;;;2.90;;
6217;SDS011;3142;48.206;11.550;2023-02-28T00:28:11;4.63;;;2.80;;
6217;SDS011;3142;48.206;11.550;2023-02-28T00:30:38;4.80;;;3.33;;
6217;SDS011;3142;48.206;11.550;2023-02-28T00:33:04;5.13;;;3.47;;
6217;SDS011;3142;48.206;11.550;2023-02-28T00:35:30;3.77;;;3.03;;
6217;SDS011;3142;48.206;11.550;2023-02-28T00:37:57;3.47;;;2.90;;
6217;SDS011;3142;48.206;11.550;2023-02-28T00:40:23;5.03;;;3.37;;
6217;SDS011;3142;48.206;11.550;2023-02-28T00:42:51;4.53;;;3.40;;
6217;SDS011;3142;48.206;11.550;2023-02-28T00:45:18;3.73;;;3.00;;
6217;SDS011;3142;48.206;11.550;2023-02-28T00:47:44;3.83;;;3.03;;
6217;SDS011;3142;48.206;11.550;2023-02-28T00:50:14;4.17;;;3.10;;
6217;SDS011;3142;48.206;11.550;2023-02-28T00:52:41;4.13;;;3.43;;
6217;SDS011;3142;48.206;11.550;2023-02-28T00:55:08;4.67;;;3.10;;
6217;SDS011;3142;48.206;11.550;2023-02-28T00:57:34;5.43;;;2.90;;
6217;SDS011;3142;48.206;11.550;2023-02-28T01:00:03;5.27;;;3.47;;
6217;SDS011;3142;48.206;11.550;2023-02-28T01:02:30;3.27;;;2.97;;
6217;SDS011;3142;48.206;11.550;2023-02-28T01:04:56;5.03;;;3.30;;
6217;SDS011;3142;48.206;11.550;2023-02-28T01:07:23;5.50;;;3.50;;
6217;SDS011;3142;48.206;11.550;2023-02-28T01:09:49;4.60;;;3.47;;
6217;SDS011;3142;48.206;11.550;2023-02-28T01:12:16;5.33;;;3.27;;
6217;SDS011;3142;48.206;11.550;2023-02-28T01:14:42;3.73;;;3.20;;
6217;SDS011;3142;48.206;11.550;2023-02-28T01:17:10;5.87;;;3.80;;
6217;SDS011;3142;48.206;11.550;2023-02-28T01:19:37;3.93;;;3.53;;
6217;SDS011;3142;48.206;11.550;2023-02-28T01:22:04;4.97;;;3.40;;
6217;SDS011;3142;48.206;11.550;2023-02-28T01:24:31;5.17;;;3.40;;
6217;SDS011;3142;48.206;11.550;2023-02-28T01:26:57;5.03;;;3.60;;
6217;SDS011;3142;48.206;11.550;2023-02-28T01:29:24;5.93;;;3.47;;
6217;SDS011;3142;48.206;11.550;2023-02-28T01:31:50;5.17;;;3.10;;
6217;SDS011;3142;48.206;11.550;2023-02-28T01:34:18;4.50;;;3.17;;
6217;SDS011;3142;48.206;11.550;2023-02-28T01:36:45;5.17;;;3.67;;
6217;SDS011;3142;48.206;11.550;2023-02-28T01:39:11;5.17;;;3.80;;
6217;SDS011;3142;48.206;11.550;2023-02-28T01:41:38;4.07;;;3.20;;
6217;SDS011;3142;48.206;11.550;2023-02-28T01:44:06;4.70;;;3.37;;
6217;SDS011;3142;48.206;11.550;2023-02-28T01:46:54;8.47;;;3.60;;
6217;SDS011;3142;48.206;11.550;2023-02-28T01:49:21;6.10;;;3.50;;
6217;SDS011;3142;48.206;11.550;2023-02-28T01:51:48;5.60;;;3.30;;
6217;SDS011;3142;48.206;11.550;2023-02-28T01:54:20;4.17;;;3.50;;
6217;SDS011;3142;48.206;11.550;2023-02-28T01:56:51;4.63;;;3.40;;
6217;SDS011;3142;48.206;11.550;2023-02-28T01:59:21;8.10;;;3.50;;
6217;SDS011;3142;48.206;11.550;2023-02-28T02:01:54;3.50;;;3.03;;
6217;SDS011;3142;48.206;11.550;2023-02-28T02:04:21;5.53;;;3.00;;
6217;SDS011;3142;48.206;11.550;2023-02-28T02:06:51;4.70;;;3.40;;
6217;SDS011;3142;48.206;11.550;2023-02-28T02:09:18;4.70;;;3.60;;
6217;SDS011;3142;48.206;11.550;2023-02-28T02:11:44;6.10;;;3.17;;
6217;SDS011;3142;48.206;11.550;2023-02-28T02:14:25;4.77;;;3.50;;
6217;SDS011;3142;48.206;11.550;2023-02-28T02:17:10;5.57;;;3.63;;
6217;SDS011;3142;48.206;11.550;2023-02-28T02:25:57;3.73;;;3.37;;
6217;SDS011;3142;48.206;11.550;2023-02-28T02:28:42;5.23;;;3.40;;
6217;SDS011;3142;48.206;11.550;2023-02-28T02:31:28;5.60;;;3.53;;
6217;SDS011;3142;48.206;11.550;2023-02-28T02:34:32;6.47;;;3.50;;
6217;SDS011;3142;48.206;11.550;2023-02-28T02:37:20;6.47;;;3.30;;
6217;SDS011;3142;48.206;11.550;2023-02-28T02:39:58;5.00;;;3.50;;
6217;SDS011;3142;48.206;11.550;2023-02-28T02:42:32;6.70;;;3.50;;
6217;SDS011;3142;48.206;11.550;2023-02-28T02:45:06;5.00;;;3.50;;
6217;SDS011;3142;48.206;11.550;2023-02-28T02:47:38;4.87;;;3.80;;
6217;SDS011;3142;48.206;11.550;2023-02-28T02:50:08;6.33;;;3.53;;
6217;SDS011;3142;48.206;11.550;2023-02-28T02:52:40;3.57;;;3.10;;
6217;SDS011;3142;48.206;11.550;2023-02-28T02:55:13;5.30;;;4.13;;
6217;SDS011;3142;48.206;11.550;2023-02-28T02:57:43;6.60;;;4.00;;
6217;SDS011;3142;48.206;11.550;2023-02-28T03:00:13;5.87;;;3.60;;
6217;SDS011;3142;48.206;11.550;2023-02-28T03:02:42;5.13;;;4.17;;
6217;SDS011;3142;48.206;11.550;2023-02-28T03:05:14;5.57;;;3.60;;
6217;SDS011;3142;48.206;11.550;2023-02-28T03:07:45;4.40;;;3.73;;
6217;SDS011;3142;48.206;11.550;2023-02-28T03:16:07;6.30;;;3.83;;
6217;SDS011;3142;48.206;11.550;2023-02-28T03:18:48;6.07;;;3.63;;
6217;SDS011;3142;48.206;11.550;2023-02-28T03:21:23;5.33;;;3.93;;
6217;SDS011;3142;48.206;11.550;2023-02-28T03:23:56;6.70;;;3.83;;
6217;SDS011;3142;48.206;11.550;2023-02-28T03:26:30;5.77;;;3.73;;
6217;SDS011;3142;48.206;11.550;2023-02-28T03:29:01;6.03;;;3.73;;
6217;SDS011;3142;48.206;11.550;2023-02-28T03:31:31;4.70;;;3.60;;
6217;SDS011;3142;48.206;11.550;2023-02-28T03:34:04;4.67;;;3.77;;
6217;SDS011;3142;48.206;11.550;2023-02-28T03:36:36;6.20;;;4.00;;
6217;SDS011;3142;48.206;11.550;2023-02-28T03:39:09;6.77;;;4.60;;
6217;SDS011;3142;48.206;11.550;2023-02-28T03:41:40;5.93;;;4.20;;
6217;SDS011;3142;48.206;11.550;2023-02-28T03:44:13;5.33;;;3.80;;
6217;SDS011;3142;48.206;11.550;2023-02-28T03:46:44;4.87;;;3.70;;
6217;SDS011;3142;48.206;11.550;2023-02-28T03:49:15;6.37;;;4.63;;
6217;SDS011;3142;48.206;11.550;2023-02-28T03:51:46;5.23;;;4.53;;
6217;SDS011;3142;48.206;11.550;2023-02-28T03:54:15;6.13;;;4.77;;
6217;SDS011;3142;48.206;11.550;2023-02-28T03:56:46;5.70;;;4.20;;
6217;SDS011;3142;48.206;11.550;2023-02-28T03:59:18;6.67;;;4.60;;
6217;SDS011;3142;48.206;11.550;2023-02-28T04:01:48;5.57;;;4.47;;
6217;SDS011;3142;48.206;11.550;2023-02-28T04:04:17;7.70;;;4.40;;
6217;SDS011;3142;48.206;11.550;2023-02-28T04:06:45;6.93;;;4.87;;
6217;SDS011;3142;48.206;11.550;2023-02-28T04:09:13;6.83;;;4.73;;
6217;SDS011;3142;48.206;11.550;2023-02-28T04:11:41;7.37;;;4.70;;
6217;SDS011;3142;48.206;11.550;2023-02-28T04:14:10;7.83;;;5.23;;
6217;SDS011;3142;48.206;11.550;2023-02-28T04:16:38;7.80;;;4.77;;
6217;SDS011;3142;48.206;11.550;2023-02-28T04:19:06;5.27;;;4.53;;
6217;SDS011;3142;48.206;11.550;2023-02-28T04:21:35;7.07;;;5.17;;
6217;SDS011;3142;48.206;11.550;2023-02-28T04:24:06;7.07;;;5.60;;
6217;SDS011;3142;48.206;11.550;2023-02-28T04:26:33;7.87;;;5.37;;
6217;SDS011;3142;48.206;11.550;2023-02-28T04:29:02;5.73;;;4.70;;
6217;SDS011;3142;48.206;11.550;2023-02-28T04:31:29;8.27;;;5.43;;
6217;SDS011;3142;48.206;11.550;2023-02-28T04:33:56;7.83;;;4.67;;
6217;SDS011;3142;48.206;11.550;2023-02-28T04:36:22;9.27;;;5.80;;
6217;SDS011;3142;48.206;11.550;2023-02-28T04:38:50;7.83;;;5.50;;
6217;SDS011;3142;48.206;11.550;2023-02-28T04:41:18;6.93;;;5.10;;
6217;SDS011;3142;48.206;11.550;2023-02-28T04:43:45;6.80;;;5.40;;
6217;SDS011;3142;48.206;11.550;2023-02-28T04:46:11;8.20;;;5.90;;
6217;SDS011;3142;48.206;11.550;2023-02-28T04:48:38;9.87;;;6.20;;
6217;SDS011;3142;48.206;11.550;2023-02-28T04:51:07;7.57;;;5.43;;
6217;SDS011;3142;48.206;11.550;2023-02-28T04:53:38;6.27;;;5.27;;
6217;SDS011;3142;48.206;11.550;2023-02-28T04:56:06;7.77;;;5.87;;
6217;SDS011;3142;48.206;11.550;2023-02-28T04:58:35;7.20;;;5.60;;
6217;SDS011;3142;48.206;11.550;2023-02-28T05:01:03;10.43;;;5.87;;
6217;SDS011;3142;48.206;11.550;2023-02-28T05:03:37;7.17;;;4.93;;
6217;SDS011;3142;48.206;11.550;2023-02-28T05:06:05;11.30;;;6.10;;
6217;SDS011;3142;48.206;11.550;2023-02-28T05:08:32;8.70;;;5.90;;
6217;SDS011;3142;48.206;11.550;2023-02-28T05:10:59;7.23;;;5.33;;
6217;SDS011;3142;48.206;11.550;2023-02-28T05:13:26;8.90;;;6.00;;
6217;SDS011;3142;48.206;11.550;2023-02-28T05:15:53;9.67;;;5.40;;
6217;SDS011;3142;48.206;11.550;2023-02-28T05:18:20;8.30;;;6.17;;
6217;SDS011;3142;48.206;11.550;2023-02-28T05:20:46;9.03;;;6.13;;
6217;SDS011;3142;48.206;11.550;2023-02-28T05:23:13;9.03;;;6.07;;
6217;SDS011;3142;48.206;11.550;2023-02-28T05:25:41;9.30;;;6.43;;
6217;SDS011;3142;48.206;11.550;2023-02-28T05:28:07;8.70;;;6.43;;
6217;SDS011;3142;48.206;11.550;2023-02-28T05:30:33;8.57;;;6.33;;
6217;SDS011;3142;48.206;11.550;2023-02-28T05:33:01;14.57;;;6.07;;
6217;SDS011;3142;48.206;11.550;2023-02-28T05:35:28;8.47;;;6.10;;
6217;SDS011;3142;48.206;11.550;2023-02-28T05:37:54;11.13;;;6.73;;
6217;SDS011;3142;48.206;11.550;2023-02-28T05:40:21;10.70;;;7.20;;
6217;SDS011;3142;48.206;11.550;2023-02-28T05:42:47;12.30;;;7.03;;
6217;SDS011;3142;48.206;11.550;2023-02-28T05:45:16;9.97;;;6.97;;
6217;SDS011;3142;48.206;11.550;2023-02-28T05:47:42;8.90;;;6.70;;
6217;SDS011;3142;48.206;11.550;2023-02-28T05:50:10;10.87;;;7.43;;
6217;SDS011;3142;48.206;11.550;2023-02-28T05:52:37;11.63;;;6.93;;
6217;SDS011;3142;48.206;11.550;2023-02-28T05:55:04;8.13;;;6.17;;
6217;SDS011;3142;48.206;11.550;2023-02-28T05:57:31;10.60;;;6.93;;
6217;SDS011;3142;48.206;11.550;2023-02-28T05:59:57;11.57;;;7.17;;
6217;SDS011;3142;48.206;11.550;2023-02-28T06:02:24;8.27;;;6.20;;
6217;SDS011;3142;48.206;11.550;2023-02-28T06:04:50;8.67;;;6.93;;
6217;SDS011;3142;48.206;11.550;2023-02-28T06:07:18;9.50;;;7.00;;
6217;SDS011;3142;48.206;11.550;2023-02-28T06:09:44;11.70;;;7.97;;
6217;SDS011;3142;48.206;11.550;2023-02-28T06:12:10;13.73;;;7.73;;
6217;SDS011;3142;48.206;11.550;2023-02-28T06:14:37;10.57;;;7.20;;
6217;SDS011;3142;48.206;11.550;2023-02-28T06:17:03;10.70;;;6.57;;
6217;SDS011;3142;48.206;11.550;2023-02-28T06:19:30;9.60;;;6.77;;
6217;SDS011;3142;48.206;11.550;2023-02-28T06:21:56;10.23;;;6.77;;
6217;SDS011;3142;48.206;11.550;2023-02-28T06:24:26;10.53;;;6.60;;
6217;SDS011;3142;48.206;11.550;2023-02-28T06:26:53;9.13;;;6.93;;
6217;SDS011;3142;48.206;11.550;2023-02-28T06:29:20;13.30;;;8.20;;
6217;SDS011;3142;48.206;11.550;2023-02-28T06:31:46;9.97;;;7.23;;
6217;SDS011;3142;48.206;11.550;2023-02-28T06:34:13;13.53;;;7.97;;
6217;SDS011;3142;48.206;11.550;2023-02-28T06:36:40;9.43;;;6.90;;
6217;SDS011;3142;48.206;11.550;2023-02-28T06:39:07;20.67;;;12.63;;
6217;SDS011;3142;48.206;11.550;2023-02-28T06:41:36;14.63;;;9.10;;
6217;SDS011;3142;48.206;11.550;2023-02-28T06:44:05;14.93;;;9.20;;
6217;SDS011;3142;48.206;11.550;2023-02-28T06:46:32;11.17;;;7.73;;
6217;SDS011;3142;48.206;11.550;2023-02-28T06:48:58;12.33;;;8.47;;
6217;SDS011;3142;48.206;11.550;2023-02-28T06:51:25;13.87;;;8.37;;
6217;SDS011;3142;48.206;11.550;2023-02-28T06:53:52;11.10;;;7.93;;
6217;SDS011;3142;48.206;11.550;2023-02-28T06:56:18;11.33;;;8.57;;
6217;SDS011;3142;48.206;11.550;2023-02-28T06:58:47;14.00;;;8.67;;
6217;SDS011;3142;48.206;11.550;2023-02-28T07:01:15;13.63;;;7.80;;
6217;SDS011;3142;48.206;11.550;2023-02-28T07:03:42;11.67;;;8.00;;
6217;SDS011;3142;48.206;11.550;2023-02-28T07:06:08;14.73;;;8.33;;
6217;SDS011;3142;48.206;11.550;2023-02-28T07:08:35;10.97;;;8.07;;
6217;SDS011;3142;48.206;11.550;2023-02-28T07:11:02;13.33;;;8.80;;
6217;SDS011;3142;48.206;11.550;2023-02-28T07:13:29;12.10;;;8.20;;
6217;SDS011;3142;48.206;11.550;2023-02-28T07:15:58;13.83;;;9.00;;
6217;SDS011;3142;48.206;11.550;2023-02-28T07:18:25;13.37;;;8.60;;
6217;SDS011;3142;48.206;11.550;2023-02-28T07:20:52;12.97;;;8.30;;
6217;SDS011;3142;48.206;11.550;2023-02-28T07:23:19;13.67;;;9.40;;
6217;SDS011;3142;48.206;11.550;2023-02-28T07:25:46;13.17;;;8.80;;
6217;SDS011;3142;48.206;11.550;2023-02-28T07:28:13;13.03;;;9.57;;
6217;SDS011;3142;48.206;11.550;2023-02-28T07:30:39;15.80;;;8.83;;
6217;SDS011;3142;48.206;11.550;2023-02-28T07:33:07;13.97;;;9.27;;
6217;SDS011;3142;48.206;11.550;2023-02-28T07:35:34;15.97;;;10.30;;
6217;SDS011;3142;48.206;11.550;2023-02-28T07:38:00;14.10;;;9.67;;
6217;SDS011;3142;48.206;11.550;2023-02-28T07:42:53;15.63;;;11.25;;
6217;SDS011;3142;48.206;11.550;2023-02-28T07:45:19;16.23;;;10.97;;
6217;SDS011;3142;48.206;11.550;2023-02-28T07:47:45;16.43;;;11.13;;
6217;SDS011;3142;48.206;11.550;2023-02-28T07:50:14;16.83;;;11.17;;
6217;SDS011;3142;48.206;11.550;2023-02-28T07:52:41;18.60;;;11.67;;
6217;SDS011;3142;48.206;11.550;2023-02-28T07:55:08;15.40;;;10.27;;
6217;SDS011;3142;48.206;11.550;2023-02-28T07:57:35;15.93;;;10.90;;
6217;SDS011;3142;48.206;11.550;2023-02-28T08:00:02;15.60;;;10.70;;
6217;SDS011;3142;48.206;11.550;2023-02-28T08:02:30;19.47;;;11.47;;
6217;SDS011;3142;48.206;11.550;2023-02-28T08:04:57;18.10;;;10.73;;
6217;SDS011;3142;48.206;11.550;2023-02-28T08:07:24;17.63;;;10.17;;
6217;SDS011;3142;48.206;11.550;2023-02-28T08:09:51;17.67;;;11.23;;
6217;SDS011;3142;48.206;11.550;2023-02-28T08:12:17;16.57;;;10.47;;
6217;SDS011;3142;48.206;11.550;2023-02-28T08:14:44;17.93;;;11.57;;
6217;SDS011;3142;48.206;11.550;2023-02-28T08:17:10;17.60;;;10.60;;
6217;SDS011;3142;48.206;11.550;2023-02-28T08:19:37;17.40;;;10.37;;
6217;SDS011;3142;48.206;11.550;2023-02-28T08:22:04;19.97;;;11.17;;
6217;SDS011;3142;48.206;11.550;2023-02-28T08:24:32;18.10;;;11.27;;
6217;SDS011;3142;48.206;11.550;2023-02-28T08:26:59;19.53;;;11.00;;
6217;SDS011;3142;48.206;11.550;2023-02-28T08:29:25;15.87;;;11.47;;
6217;SDS011;3142;48.206;11.550;2023-02-28T08:31:52;15.93;;;10.73;;
6217;SDS011;3142;48.206;11.550;2023-02-28T08:34:18;16.90;;;10.60;;
6217;SDS011;3142;48.206;11.550;2023-02-28T08:36:44;38.63;;;20.50;;
6217;SDS011;3142;48.206;11.550;2023-02-28T08:39:11;19.43;;;12.57;;
6217;SDS011;3142;48.206;11.550;2023-02-28T08:41:39;17.23;;;10.53;;
6217;SDS011;3142;48.206;11.550;2023-02-28T08:44:07;16.30;;;11.70;;
6217;SDS011;3142;48.206;11.550;2023-02-28T08:46:34;16.27;;;11.67;;
6217;SDS011;3142;48.206;11.550;2023-02-28T08:49:00;18.93;;;11.40;;
6217;SDS011;3142;48.206;11.550;2023-02-28T08:51:27;18.23;;;12.03;;
6217;SDS011;3142;48.206;11.550;2023-02-28T08:53:54;16.53;;;11.17;;
6217;SDS011;3142;48.206;11.550;2023-02-28T08:56:22;14.00;;;10.17;;
6217;SDS011;3142;48.206;11.550;2023-02-28T08:58:50;16.87;;;10.90;;
6217;SDS011;3142;48.206;11.550;2023-02-28T09:01:17;14.80;;;10.73;;
6217;SDS011;3142;48.206;11.550;2023-02-28T09:03:45;23.00;;;15.37;;
6217;SDS011;3142;48.206;11.550;2023-02-28T09:06:13;17.87;;;11.57;;
6217;SDS011;3142;48.206;11.550;2023-02-28T09:08:40;13.43;;;10.80;;
6217;SDS011;3142;48.206;11.550;2023-02-28T09:11:07;14.97;;;10.30;;
6217;SDS011;3142;48.206;11.550;2023-02-28T09:13:34;17.67;;;11.17;;
6217;SDS011;3142;48.206;11.550;2023-02-28T09:16:03;15.70;;;10.43;;
6217;SDS011;3142;48.206;11.550;2023-02-28T09:18:33;14.07;;;10.60;;
6217;SDS011;3142;48.206;11.550;2023-02-28T09:20:59;17.13;;;11.73;;
6217;SDS011;3142;48.206;11.550;2023-02-28T09:23:28;15.80;;;12.23;;
6217;SDS011;3142;48.206;11.550;2023-02-28T09:25:55;17.27;;;10.97;;
6217;SDS011;3142;48.206;11.550;2023-02-28T09:28:21;19.93;;;12.10;;
6217;SDS011;3142;48.206;11.550;2023-02-28T09:30:48;16.07;;;10.60;;
6217;SDS011;3142;48.206;11.550;2023-02-28T09:33:17;19.23;;;10.57;;
6217;SDS011;3142;48.206;11.550;2023-02-28T09:35:45;18.03;;;12.07;;
6217;SDS011;3142;48.206;11.550;2023-02-28T09:38:12;14.73;;;10.60;;
6217;SDS011;3142;48.206;11.550;2023-02-28T09:40:39;16.00;;;9.93;;
6217;SDS011;3142;48.206;11.550;2023-02-28T09:43:14;13.90;;;11.10;;
6217;SDS011;3142;48.206;11.550;2023-02-28T09:45:42;15.27;;;11.03;;
6217;SDS011;3142;48.206;11.550;2023-02-28T09:48:15;16.87;;;11.57;;
6217;SDS011;3142;48.206;11.550;2023-02-28T09:50:46;18.83;;;11.03;;
6217;SDS011;3142;48.206;11.550;2023-02-28T09:53:15;16.33;;;10.57;;
6217;SDS011;3142;48.206;11.550;2023-02-28T09:55:48;18.37;;;11.63;;
6217;SDS011;3142;48.206;11.550;2023-02-28T09:58:18;24.07;;;12.13;;
6217;SDS011;3142;48.206;11.550;2023-02-28T10:00:49;15.17;;;10.63;;
6217;SDS011;3142;48.206;11.550;2023-02-28T10:03:27;16.07;;;10.73;;
6217;SDS011;3142;48.206;11.550;2023-02-28T10:06:01;12.70;;;9.67;;
6217;SDS011;3142;48.206;11.550;2023-02-28T10:08:36;15.87;;;10.97;;
6217;SDS011;3142;48.206;11.550;2023-02-28T10:11:07;16.93;;;11.73;;
6217;SDS011;3142;48.206;11.550;2023-02-28T10:13:39;15.23;;;10.27;;
6217;SDS011;3142;48.206;11.550;2023-02-28T10:16:16;15.27;;;10.40;;
6217;SDS011;3142;48.206;11.550;2023-02-28T10:18:49;14.67;;;10.13;;
6217;SDS011;3142;48.206;11.550;2023-02-28T10:21:21;15.30;;;10.40;;
6217;SDS011;3142;48.206;11.550;2023-02-28T10:23:52;18.33;;;10.37;;
6217;SDS011;3142;48.206;11.550;2023-02-28T10:26:28;16.13;;;10.57;;
6217;SDS011;3142;48.206;11.550;2023-02-28T10:28:56;42.43;;;22.43;;
6217;SDS011;3142;48.206;11.550;2023-02-28T10:31:22;15.73;;;11.17;;
6217;SDS011;3142;48.206;11.550;2023-02-28T10:33:48;16.23;;;11.60;;
6217;SDS011;3142;48.206;11.550;2023-02-28T10:36:16;15.00;;;10.13;;
6217;SDS011;3142;48.206;11.550;2023-02-28T10:38:45;19.27;;;12.23;;
6217;SDS011;3142;48.206;11.550;2023-02-28T10:41:14;16.03;;;10.83;;
6217;SDS011;3142;48.206;11.550;2023-02-28T10:43:42;21.07;;;14.33;;
6217;SDS011;3142;48.206;11.550;2023-02-28T10:46:11;15.83;;;12.27;;
6217;SDS011;3142;48.206;11.550;2023-02-28T10:48:40;16.70;;;11.90;;
6217;SDS011;3142;48.206;11.550;2023-02-28T10:51:08;14.23;;;9.43;;
6217;SDS011;3142;48.206;11.550;2023-02-28T10:53:47;14.03;;;10.47;;
6217;SDS011;3142;48.206;11.550;2023-02-28T10:56:16;14.37;;;10.20;;
6217;SDS011;3142;48.206;11.550;2023-02-28T10:58:47;13.57;;;9.60;;
6217;SDS011;3142;48.206;11.550;2023-02-28T11:01:17;12.40;;;9.77;;
6217;SDS011;3142;48.206;11.550;2023-02-28T11:03:45;12.50;;;9.10;;
6217;SDS011;3142;48.206;11.550;2023-02-28T11:06:16;12.47;;;8.70;;
6217;SDS011;3142;48.206;11.550;2023-02-28T11:08:50;12.33;;;9.63;;
6217;SDS011;3142;48.206;11.550;2023-02-28T11:11:18;14.67;;;10.90;;
6217;SDS011;3142;48.206;11.550;2023-02-28T11:13:48;12.13;;;9.03;;
6217;SDS011;3142;48.206;11.550;2023-02-28T11:16:17;14.83;;;9.70;;
6217;SDS011;3142;48.206;11.550;2023-02-28T11:18:47;15.80;;;10.10;;
6217;SDS011;3142;48.206;11.550;2023-02-28T11:21:16;13.83;;;9.30;;
6217;SDS011;3142;48.206;11.550;2023-02-28T11:23:46;15.30;;;9.63;;
6217;SDS011;3142;48.206;11.550;2023-02-28T11:29:03;14.03;;;10.57;;
6217;SDS011;3142;48.206;11.550;2023-02-28T11:31:36;33.23;;;20.43;;
6217;SDS011;3142;48.206;11.550;2023-02-28T11:34:10;15.73;;;11.73;;
6217;SDS011;3142;48.206;11.550;2023-02-28T11:36:51;15.43;;;9.47;;
6217;SDS011;3142;48.206;11.550;2023-02-28T11:39:20;15.37;;;9.17;;
6217;SDS011;3142;48.206;11.550;2023-02-28T11:41:52;14.40;;;9.87;;
6217;SDS011;3142;48.206;11.550;2023-02-28T11:44:30;13.60;;;9.13;;
6217;SDS011;3142;48.206;11.550;2023-02-28T11:47:09;12.10;;;9.27;;
6217;SDS011;3142;48.206;11.550;2023-02-28T11:49:43;12.07;;;9.30;;
6217;SDS011;3142;48.206;11.550;2023-02-28T11:52:20;13.07;;;9.10;;
6217;SDS011;3142;48.206;11.550;2023-02-28T11:55:06;12.50;;;9.80;;
6217;SDS011;3142;48.206;11.550;2023-02-28T11:57:48;13.70;;;9.97;;
6217;SDS011;3142;48.206;11.550;2023-02-28T12:00:32;10.87;;;8.53;;
6217;SDS011;3142;48.206;11.550;2023-02-28T12:03:09;14.00;;;9.57;;
6217;SDS011;3142;48.206;11.550;2023-02-28T12:05:49;11.83;;;9.57;;
6217;SDS011;3142;48.206;11.550;2023-02-28T12:08:27;12.93;;;9.13;;
6217;SDS011;3142;48.206;11.550;2023-02-28T12:11:11;11.60;;;9.40;;
6217;SDS011;3142;48.206;11.550;2023-02-28T12:13:51;10.80;;;8.87;;
6217;SDS011;3142;48.206;11.550;2023-02-28T12:16:28;13.33;;;9.33;;
6217;SDS011;3142;48.206;11.550;2023-02-28T12:19:10;16.47;;;9.23;;
6217;SDS011;3142;48.206;11.550;2023-02-28T12:21:48;11.43;;;9.03;;
6217;SDS011;3142;48.206;11.550;2023-02-28T12:24:37;11.67;;;9.20;;
6217;SDS011;3142;48.206;11.550;2023-02-28T12:27:15;15.23;;;8.97;;
6217;SDS011;3142;48.206;11.550;2023-02-28T12:29:46;13.63;;;9.17;;
6217;SDS011;3142;48.206;11.550;2023-02-28T12:32:16;11.23;;;8.67;;
6217;SDS011;3142;48.206;11.550;2023-02-28T12:34:47;12.93;;;9.37;;
6217;SDS011;3142;48.206;11.550;2023-02-28T12:37:17;12.10;;;8.97;;
6217;SDS011;3142;48.206;11.550;2023-02-28T12:39:48;13.67;;;9.40;;
6217;SDS011;3142;48.206;11.550;2023-02-28T12:42:24;14.87;;;9.43;;
6217;SDS011;3142;48.206;11.550;2023-02-28T12:44:55;14.00;;;9.10;;
6217;SDS011;3142;48.206;11.550;2023-02-28T12:47:24;10.10;;;8.63;;
6217;SDS011;3142;48.206;11.550;2023-02-28T12:49:51;11.60;;;9.23;;
6217;SDS011;3142;48.206;11.550;2023-02-28T12:52:23;11.60;;;9.00;;
6217;SDS011;3142;48.206;11.550;2023-02-28T12:54:55;12.07;;;9.00;;
6217;SDS011;3142;48.206;11.550;2023-02-28T12:57:34;10.60;;;8.40;;
6217;SDS011;3142;48.206;11.550;2023-02-28T13:00:08;12.00;;;8.87;;
6217;SDS011;3142;48.206;11.550;2023-02-28T13:05:43;11.47;;;9.27;;
6217;SDS011;3142;48.206;11.550;2023-02-28T13:08:34;12.50;;;8.13;;
6217;SDS011;3142;48.206;11.550;2023-02-28T13:11:25;11.10;;;8.33;;
6217;SDS011;3142;48.206;11.550;2023-02-28T13:13:59;10.77;;;8.00;;
6217;SDS011;3142;48.206;11.550;2023-02-28T13:16:28;11.50;;;8.80;;
6217;SDS011;3142;48.206;11.550;2023-02-28T13:19:16;13.10;;;9.00;;
6217;SDS011;3142;48.206;11.550;2023-02-28T13:21:46;11.23;;;9.07;;
6217;SDS011;3142;48.206;11.550;2023-02-28T13:24:36;10.30;;;8.27;;
6217;SDS011;3142;48.206;11.550;2023-02-28T13:33:23;10.70;;;8.33;;
6217;SDS011;3142;48.206;11.550;2023-02-28T13:36:00;12.47;;;8.93;;
6217;SDS011;3142;48.206;11.550;2023-02-28T13:38:34;12.37;;;9.33;;
6217;SDS011;3142;48.206;11.550;2023-02-28T13:44:10;12.23;;;9.13;;
6217;SDS011;3142;48.206;11.550;2023-02-28T13:49:44;11.77;;;9.23;;
6217;SDS011;3142;48.206;11.550;2023-02-28T13:52:12;12.23;;;8.70;;
6217;SDS011;3142;48.206;11.550;2023-02-28T13:54:49;12.60;;;9.73;;
6217;SDS011;3142;48.206;11.550;2023-02-28T13:57:25;15.63;;;11.50;;
6217;SDS011;3142;48.206;11.550;2023-02-28T14:00:05;16.07;;;11.73;;
6217;SDS011;3142;48.206;11.550;2023-02-28T14:02:59;22.20;;;15.93;;
6217;SDS011;3142;48.206;11.550;2023-02-28T14:05:38;12.70;;;8.93;;
6217;SDS011;3142;48.206;11.550;2023-02-28T14:08:06;11.27;;;8.90;;
6217;SDS011;3142;48.206;11.550;2023-02-28T14:10:41;13.40;;;8.70;;
6217;SDS011;3142;48.206;11.550;2023-02-28T14:13:12;10.50;;;8.00;;
6217;SDS011;3142;48.206;11.550;2023-02-28T14:15:43;12.47;;;8.43;;
6217;SDS011;3142;48.206;11.550;2023-02-28T14:18:15;13.10;;;8.90;;
6217;SDS011;3142;48.206;11.550;2023-02-28T14:20:47;12.07;;;8.10;;
6217;SDS011;3142;48.206;11.550;2023-02-28T14:23:17;12.57;;;8.47;;
6217;SDS011;3142;48.206;11.550;2023-02-28T14:25:59;12.33;;;8.70;;
6217;SDS011;3142;48.206;11.550;2023-02-28T14:28:36;21.60;;;15.77;;
6217;SDS011;3142;48.206;11.550;2023-02-28T14:31:13;10.93;;;8.30;;
6217;SDS011;3142;48.206;11.550;2023-02-28T14:33:47;18.47;;;12.97;;
6217;SDS011;3142;48.206;11.550;2023-02-28T14:36:48;16.73;;;12.23;;
6217;SDS011;3142;48.206;11.550;2023-02-28T14:39:16;11.00;;;8.13;;
6217;SDS011;3142;48.206;11.550;2023-02-28T14:41:46;10.83;;;8.50;;
6217;SDS011;3142;48.206;11.550;2023-02-28T14:44:14;12.23;;;8.37;;
6217;SDS011;3142;48.206;11.550;2023-02-28T14:46:42;11.40;;;7.60;;
6217;SDS011;3142;48.206;11.550;2023-02-28T14:49:12;11.87;;;8.30;;
6217;SDS011;3142;48.206;11.550;2023-02-28T14:51:43;12.00;;;8.40;;
6217;SDS011;3142;48.206;11.550;2023-02-28T14:54:13;13.17;;;8.60;;
6217;SDS011;3142;48.206;11.550;2023-02-28T14:56:41;10.67;;;8.50;;
6217;SDS011;3142;48.206;11.550;2023-02-28T14:59:21;11.83;;;8.70;;
6217;SDS011;3142;48.206;11.550;2023-02-28T15:01:51;13.13;;;8.00;;
6217;SDS011;3142;48.206;11.550;2023-02-28T15:04:26;11.03;;;8.70;;
6217;SDS011;3142;48.206;11.550;2023-02-28T15:09:41;14.50;;;8.97;;
6217;SDS011;3142;48.206;11.550;2023-02-28T15:12:07;21.10;;;12.67;;
6217;SDS011;3142;48.206;11.550;2023-02-28T15:14:39;26.67;;;17.40;;
6217;SDS011;3142;48.206;11.550;2023-02-28T15:17:11;23.73;;;14.70;;
6217;SDS011;3142;48.206;11.550;2023-02-28T15:19:48;9.87;;;7.93;;
6217;SDS011;3142;48.206;11.550;2023-02-28T15:22:18;14.23;;;8.57;;
6217;SDS011;3142;48.206;11.550;2023-02-28T15:24:51;14.30;;;8.73;;
6217;SDS011;3142;48.206;11.550;2023-02-28T15:27:20;10.27;;;8.70;;
6217;SDS011;3142;48.206;11.550;2023-02-28T15:29:50;13.97;;;8.63;;
6217;SDS011;3142;48.206;11.550;2023-02-28T15:32:28;10.00;;;8.23;;
6217;SDS011;3142;48.206;11.550;2023-02-28T15:34:56;10.53;;;8.53;;
6217;SDS011;3142;48.206;11.550;2023-02-28T15:37:28;11.50;;;8.73;;
6217;SDS011;3142;48.206;11.550;2023-02-28T15:40:10;13.07;;;9.93;;
6217;SDS011;3142;48.206;11.550;2023-02-28T15:42:39;20.97;;;13.20;;
6217;SDS011;3142;48.206;11.550;2023-02-28T15:47:54;17.27;;;11.27;;